Time;durP1;ratioP1;P1;durP2;ratioP2;P2;SDS_P1;SDS_P2;PMS_P1;PMS_P2;Temp;Humidity;BMP_temperature;BMP_pressure;BME280_temperature;BME280_humidity;BME280_pressure;Samples;Min_cycle;Max_cycle;Signal;HPM_P1;HPM_P2
2022/05/14 00:00:20;;;;;;;17.73;7.07;;;12.60;99.90;;;;;;5028810;28;20049;-76
2022/05/14 00:02:47;;;;;;;22.52;5.30;;;12.60;99.90;;;;;;5018509;28;20052;-77
2022/05/14 00:05:13;;;;;;;16.88;5.97;;;12.50;99.90;;;;;;5025469;28;20057;-77
2022/05/14 00:07:40;;;;;;;16.50;6.15;;;12.50;99.90;;;;;;5026419;28;20057;-78
2022/05/14 00:10:06;;;;;;;18.92;5.40;;;12.60;99.90;;;;;;5031724;28;20052;-77
2022/05/14 00:15:17;;;;;;;14.80;5.70;;;12.50;99.90;;;;;;5019187;28;20064;-75
2022/05/14 00:17:44;;;;;;;17.15;5.90;;;12.50;99.90;;;;;;5018934;28;20057;-77
2022/05/14 00:20:11;;;;;;;11.65;5.13;;;12.50;99.90;;;;;;5027855;28;20124;-77
2022/05/14 00:22:37;;;;;;;12.35;5.22;;;12.50;99.90;;;;;;5023445;28;20408;-79
2022/05/14 00:25:04;;;;;;;16.80;6.47;;;12.50;99.90;;;;;;5028788;28;20046;-78
2022/05/14 00:27:30;;;;;;;14.35;6.38;;;12.40;99.90;;;;;;5022252;28;20065;-77
2022/05/14 00:29:57;;;;;;;16.83;7.05;;;12.50;99.90;;;;;;5030775;28;20060;-77
2022/05/14 00:32:24;;;;;;;10.02;6.32;;;12.40;99.90;;;;;;5019847;28;20065;-77
2022/05/14 00:34:50;;;;;;;18.70;7.10;;;12.40;99.90;;;;;;5023975;28;20409;-77
2022/05/14 00:37:17;;;;;;;13.45;5.88;;;12.40;99.90;;;;;;5030569;28;20484;-77
2022/05/14 00:39:43;;;;;;;15.35;5.47;;;12.40;99.90;;;;;;5029062;28;20107;-75
2022/05/14 00:42:10;;;;;;;16.02;6.57;;;12.40;99.90;;;;;;5021212;28;20508;-75
2022/05/14 00:44:36;;;;;;;18.20;6.38;;;12.40;99.90;;;;;;5030421;28;20053;-75
2022/05/14 00:47:03;;;;;;;16.00;6.53;;;12.30;99.90;;;;;;5013947;28;20053;-76
2022/05/14 00:49:30;;;;;;;15.80;5.40;;;12.30;99.90;;;;;;5018220;28;20124;-78
2022/05/14 00:51:58;;;;;;;11.43;5.53;;;12.30;99.90;;;;;;5024192;28;20129;-76
2022/05/14 00:54:24;;;;;;;13.63;4.93;;;12.30;99.90;;;;;;5026964;28;20049;-76
2022/05/14 00:56:51;;;;;;;12.45;6.18;;;12.30;99.90;;;;;;5028161;28;20042;-76
2022/05/14 00:59:18;;;;;;;14.93;6.28;;;12.30;99.90;;;;;;5018021;28;20050;-76
2022/05/14 01:01:44;;;;;;;19.35;6.15;;;12.30;99.90;;;;;;5028758;28;20053;-76
2022/05/14 01:04:11;;;;;;;16.52;7.03;;;12.30;99.90;;;;;;5028669;28;20053;-76
2022/05/14 01:06:37;;;;;;;15.82;5.97;;;12.30;99.90;;;;;;5023123;28;20558;-76
2022/05/14 01:09:04;;;;;;;13.77;6.45;;;12.20;99.90;;;;;;5031468;28;20053;-76
2022/05/14 01:11:31;;;;;;;10.88;5.60;;;12.30;99.90;;;;;;5030140;28;20405;-78
2022/05/14 01:13:57;;;;;;;18.38;6.32;;;12.30;99.90;;;;;;5022541;28;20049;-75
2022/05/14 01:16:24;;;;;;;9.88;6.50;;;12.30;99.90;;;;;;5026503;28;20054;-76
2022/05/14 01:18:51;;;;;;;13.98;5.70;;;12.30;99.90;;;;;;5029414;28;20049;-76
2022/05/14 01:21:17;;;;;;;17.33;6.90;;;12.20;99.90;;;;;;5027259;28;20049;-77
2022/05/14 01:26:30;;;;;;;14.07;5.93;;;12.30;99.90;;;;;;5017291;28;20049;-77
2022/05/14 01:28:57;;;;;;;16.25;6.25;;;12.20;99.90;;;;;;5030040;28;20057;-76
2022/05/14 01:31:23;;;;;;;18.75;7.38;;;12.20;99.90;;;;;;5027884;28;20057;-77
2022/05/14 01:33:50;;;;;;;14.52;6.97;;;12.10;99.90;;;;;;5020883;28;20068;-77
2022/05/14 01:36:16;;;;;;;20.15;6.28;;;12.10;99.90;;;;;;5017988;28;20492;-75
2022/05/14 01:38:43;;;;;;;23.95;7.60;;;12.10;99.90;;;;;;5016683;28;20049;-76
2022/05/14 01:41:10;;;;;;;20.38;7.55;;;12.10;99.90;;;;;;5022368;28;20046;-76
2022/05/14 01:43:37;;;;;;;26.77;7.10;;;12.10;99.90;;;;;;5028282;28;20597;-77
2022/05/14 01:46:03;;;;;;;12.20;6.20;;;12.10;99.90;;;;;;5021562;28;20050;-76
2022/05/14 01:48:30;;;;;;;12.20;5.78;;;12.10;99.90;;;;;;5026842;28;20068;-77
2022/05/14 01:50:57;;;;;;;18.60;6.40;;;12.00;99.90;;;;;;5023883;28;20119;-77
2022/05/14 01:53:23;;;;;;;14.50;6.50;;;12.00;99.90;;;;;;5029179;28;20049;-76
2022/05/14 01:55:50;;;;;;;18.70;7.57;;;12.10;99.90;;;;;;5012762;28;20053;-76
2022/05/14 02:01:00;;;;;;;17.77;6.30;;;12.00;99.90;;;;;;5024684;28;20046;-77
2022/05/14 02:03:27;;;;;;;20.33;6.78;;;12.00;99.90;;;;;;5014799;28;20096;-75
2022/05/14 02:05:53;;;;;;;10.85;6.63;;;12.00;99.90;;;;;;5015544;28;20046;-76
2022/05/14 02:08:20;;;;;;;11.35;6.82;;;12.00;99.90;;;;;;5030063;28;20050;-77
2022/05/14 02:10:46;;;;;;;10.75;5.82;;;12.00;99.90;;;;;;5028572;28;20130;-76
2022/05/14 02:13:13;;;;;;;16.38;7.43;;;12.10;99.90;;;;;;5031591;28;20061;-77
2022/05/14 02:15:40;;;;;;;12.38;7.20;;;12.00;99.90;;;;;;5023035;28;20046;-77
2022/05/14 02:18:06;;;;;;;15.90;6.82;;;12.00;99.90;;;;;;5031627;28;20056;-76
2022/05/14 02:20:33;;;;;;;21.00;8.23;;;12.00;99.90;;;;;;5032983;28;20060;-77
2022/05/14 02:22:59;;;;;;;23.10;7.60;;;12.00;99.90;;;;;;5028565;28;20111;-80
2022/05/14 02:25:26;;;;;;;29.77;8.50;;;12.00;99.90;;;;;;5023181;28;20061;-76
2022/05/14 02:27:52;;;;;;;26.65;8.80;;;12.10;99.90;;;;;;5019390;28;20053;-78
2022/05/14 02:30:19;;;;;;;23.23;8.05;;;12.10;99.90;;;;;;5032877;28;20495;-77
2022/05/14 02:32:45;;;;;;;19.42;8.57;;;12.00;99.90;;;;;;5028635;28;20490;-76
2022/05/14 02:35:12;;;;;;;21.92;7.95;;;12.10;99.90;;;;;;5026037;28;20053;-76
2022/05/14 02:37:38;;;;;;;20.55;8.88;;;12.00;99.90;;;;;;5024366;28;20049;-80
2022/05/14 02:40:05;;;;;;;19.90;8.82;;;12.00;99.90;;;;;;5029180;28;20056;-77
2022/05/14 02:42:31;;;;;;;19.80;8.75;;;12.00;99.90;;;;;;5026595;28;20057;-75
2022/05/14 02:44:58;;;;;;;19.77;7.88;;;12.00;99.90;;;;;;5019663;28;20245;-76
2022/05/14 02:47:24;;;;;;;18.35;8.38;;;11.90;99.90;;;;;;5027146;28;20052;-77
2022/05/14 02:49:51;;;;;;;17.20;8.20;;;11.90;99.90;;;;;;5027851;28;20057;-76
2022/05/14 02:52:17;;;;;;;19.90;8.30;;;11.80;99.90;;;;;;5019523;28;20046;-76
2022/05/14 02:54:44;;;;;;;29.45;9.02;;;11.80;99.90;;;;;;5030664;28;20046;-77
2022/05/14 02:57:10;;;;;;;23.15;9.05;;;11.80;99.90;;;;;;5020661;28;20053;-76
2022/05/14 02:59:37;;;;;;;17.77;8.70;;;11.80;99.90;;;;;;5028436;28;20398;-76
2022/05/14 03:02:04;;;;;;;17.90;7.65;;;11.70;99.90;;;;;;5016508;28;20096;-77
2022/05/14 03:04:31;;;;;;;20.85;9.18;;;11.70;99.90;;;;;;5030083;28;20046;-77
2022/05/14 03:06:57;;;;;;;22.30;9.13;;;11.70;99.90;;;;;;5029903;28;20060;-78
2022/05/14 03:09:24;;;;;;;24.02;8.63;;;11.70;99.90;;;;;;5029231;28;20056;-77
2022/05/14 03:11:50;;;;;;;31.40;10.15;;;11.70;99.90;;;;;;5029824;28;20061;-75
2022/05/14 03:14:17;;;;;;;21.25;9.48;;;11.70;99.90;;;;;;5027275;28;20412;-76
2022/05/14 03:16:43;;;;;;;26.27;9.55;;;11.60;99.90;;;;;;5020917;28;20061;-79
2022/05/14 03:19:10;;;;;;;25.95;9.95;;;11.50;99.90;;;;;;5027583;28;20049;-76
2022/05/14 03:21:36;;;;;;;24.38;9.38;;;11.50;99.90;;;;;;5019035;28;20057;-77
2022/05/14 03:24:03;;;;;;;38.92;11.45;;;11.50;99.90;;;;;;5031475;28;20148;-77
2022/05/14 03:26:29;;;;;;;24.23;8.98;;;11.50;99.90;;;;;;5031072;28;20049;-76
2022/05/14 03:28:56;;;;;;;24.00;9.95;;;11.50;99.90;;;;;;5030804;28;20053;-76
2022/05/14 03:31:22;;;;;;;30.35;8.73;;;11.50;99.90;;;;;;5017957;28;20057;-77
2022/05/14 03:33:49;;;;;;;28.10;10.85;;;11.50;99.90;;;;;;5025378;28;20128;-79
2022/05/14 03:36:15;;;;;;;35.60;10.73;;;11.50;99.90;;;;;;5029056;28;20056;-76
2022/05/14 03:38:42;;;;;;;25.00;9.75;;;11.40;99.90;;;;;;5022441;28;20111;-76
2022/05/14 03:41:08;;;;;;;19.98;8.70;;;11.50;99.90;;;;;;5017772;28;20058;-76
2022/05/14 03:43:35;;;;;;;27.15;9.48;;;11.40;99.90;;;;;;5021016;28;20061;-75
2022/05/14 03:46:02;;;;;;;33.72;10.48;;;11.40;99.90;;;;;;5030188;28;20060;-79
2022/05/14 03:48:29;;;;;;;33.47;9.52;;;11.40;99.90;;;;;;5031887;28;20050;-77
2022/05/14 03:50:55;;;;;;;26.30;10.98;;;11.40;99.90;;;;;;5030569;28;20065;-76
2022/05/14 03:53:22;;;;;;;18.55;8.60;;;11.40;99.90;;;;;;5021217;28;20757;-76
2022/05/14 03:55:48;;;;;;;31.27;10.98;;;11.30;99.90;;;;;;5019455;28;20496;-77
2022/05/14 03:58:15;;;;;;;27.80;11.52;;;11.40;99.90;;;;;;5026519;28;20085;-75
2022/05/14 04:00:41;;;;;;;27.42;11.30;;;11.40;99.90;;;;;;5022090;28;20449;-76
2022/05/14 04:03:08;;;;;;;28.73;10.93;;;11.40;99.90;;;;;;5027963;28;20085;-76
2022/05/14 04:05:35;;;;;;;27.88;11.30;;;11.40;99.90;;;;;;5026414;28;20064;-77
2022/05/14 04:08:01;;;;;;;27.45;10.02;;;11.40;99.90;;;;;;5015520;28;20053;-76
2022/05/14 04:10:29;;;;;;;33.95;10.57;;;11.40;99.90;;;;;;5026158;28;20136;-76
2022/05/14 04:12:56;;;;;;;28.08;11.27;;;11.40;99.90;;;;;;5015754;28;20088;-76
2022/05/14 04:15:23;;;;;;;28.70;11.52;;;11.40;99.90;;;;;;5019953;28;20057;-76
2022/05/14 04:17:50;;;;;;;26.90;11.40;;;11.40;99.90;;;;;;5021910;28;20071;-77
2022/05/14 04:20:16;;;;;;;24.48;10.98;;;11.40;99.90;;;;;;5030219;28;20057;-75
2022/05/14 04:22:43;;;;;;;27.75;11.40;;;11.40;99.90;;;;;;5020954;28;20056;-75
2022/05/14 04:25:11;;;;;;;27.55;10.55;;;11.40;99.90;;;;;;5030178;28;20058;-76
2022/05/14 04:27:37;;;;;;;33.85;11.38;;;11.40;99.90;;;;;;5025848;28;20520;-76
2022/05/14 04:30:04;;;;;;;24.80;10.75;;;11.50;99.90;;;;;;5021815;28;20056;-76
2022/05/14 04:32:30;;;;;;;35.95;11.85;;;11.50;99.90;;;;;;5015050;28;20053;-77
2022/05/14 04:34:57;;;;;;;37.85;11.98;;;11.60;99.90;;;;;;5021717;28;20049;-76
2022/05/14 04:37:23;;;;;;;28.52;10.13;;;11.70;99.90;;;;;;5029268;28;20053;-76
2022/05/14 04:39:50;;;;;;;34.38;11.88;;;11.80;99.90;;;;;;5024016;28;20057;-78
2022/05/14 04:42:16;;;;;;;30.15;11.82;;;11.80;99.90;;;;;;5026061;28;20053;-75
2022/05/14 04:44:43;;;;;;;24.92;10.80;;;11.90;99.90;;;;;;5029751;28;20057;-76
2022/05/14 04:47:09;;;;;;;27.38;12.00;;;12.00;99.90;;;;;;5024892;28;20654;-76
2022/05/14 04:49:36;;;;;;;34.30;11.65;;;12.10;99.90;;;;;;5021589;28;20056;-76
2022/05/14 04:52:02;;;;;;;25.35;10.60;;;12.20;99.90;;;;;;5018465;28;20053;-76
2022/05/14 04:54:29;;;;;;;26.55;11.10;;;12.30;99.90;;;;;;5013052;28;20042;-76
2022/05/14 04:56:55;;;;;;;30.80;12.50;;;12.40;99.90;;;;;;5020702;28;20046;-76
2022/05/14 04:59:22;;;;;;;35.20;12.20;;;12.60;99.90;;;;;;5030514;28;20057;-76
2022/05/14 05:04:29;;;;;;;35.38;12.57;;;12.70;99.90;;;;;;5027694;28;20092;-77
2022/05/14 05:06:55;;;;;;;38.90;11.15;;;12.90;99.90;;;;;;5016218;28;20125;-77
2022/05/14 05:09:22;;;;;;;32.42;12.63;;;13.00;99.90;;;;;;5023564;28;20049;-77
2022/05/14 05:11:50;;;;;;;30.17;11.20;;;13.20;99.90;;;;;;5022529;28;20050;-77
2022/05/14 05:14:16;;;;;;;28.38;10.77;;;13.40;99.90;;;;;;5018898;28;20060;-78
2022/05/14 05:16:43;;;;;;;32.95;12.15;;;13.60;99.90;;;;;;5021667;28;20443;-77
2022/05/14 05:19:09;;;;;;;27.10;11.35;;;13.70;99.90;;;;;;5016726;28;20053;-76
2022/05/14 05:21:36;;;;;;;24.85;9.27;;;13.90;99.90;;;;;;5020676;28;20099;-77
2022/05/14 05:24:05;;;;;;;17.73;9.52;;;14.00;99.90;;;;;;5026944;28;20053;-77
2022/05/14 05:26:32;;;;;;;25.55;10.52;;;14.10;99.90;;;;;;5018656;28;20056;-78
2022/05/14 05:28:58;;;;;;;21.55;9.27;;;14.20;99.90;;;;;;5024435;28;20451;-78
2022/05/14 05:31:25;;;;;;;24.73;10.30;;;14.30;99.90;;;;;;5010402;28;20473;-78
2022/05/14 05:33:51;;;;;;;28.50;9.98;;;14.40;99.90;;;;;;5013036;28;20049;-78
2022/05/14 05:36:18;;;;;;;27.20;9.30;;;14.40;99.90;;;;;;5014856;28;20050;-78
2022/05/14 05:38:44;;;;;;;34.10;11.00;;;14.40;99.90;;;;;;5013463;28;20061;-78
2022/05/14 05:41:11;;;;;;;26.42;9.30;;;14.50;99.90;;;;;;5017709;28;20057;-78
2022/05/14 05:43:38;;;;;;;27.73;9.23;;;14.50;99.90;;;;;;5013510;28;20044;-79
2022/05/14 05:46:04;;;;;;;22.45;9.30;;;14.50;99.90;;;;;;5018924;28;20061;-80
2022/05/14 05:48:31;;;;;;;20.80;10.13;;;14.50;99.90;;;;;;5021307;28;20041;-82
2022/05/14 05:50:58;;;;;;;25.90;9.00;;;14.40;99.90;;;;;;5019496;28;20050;-80
2022/05/14 05:56:46;;;;;;;28.40;9.48;;;14.50;99.90;;;;;;5017226;28;20050;-79
2022/05/14 05:58:55;;;;;;;29.35;10.38;;;14.40;99.90;;;;;;5020848;28;20049;-83
2022/05/14 06:01:22;;;;;;;28.52;10.55;;;14.50;99.90;;;;;;5020202;28;20485;-81
2022/05/14 06:03:48;;;;;;;25.10;8.77;;;14.70;99.90;;;;;;5017366;28;20426;-79
2022/05/14 06:06:15;;;;;;;22.90;9.95;;;14.90;99.90;;;;;;5013376;28;20698;-80
2022/05/14 06:08:41;;;;;;;28.38;9.15;;;15.00;99.90;;;;;;5017109;28;20050;-80
2022/05/14 06:11:08;;;;;;;22.55;9.50;;;15.20;99.90;;;;;;5017531;28;20056;-78
2022/05/14 06:13:35;;;;;;;25.42;9.50;;;15.30;99.90;;;;;;5015120;28;20049;-80
2022/05/14 06:16:01;;;;;;;23.90;8.88;;;15.40;99.90;;;;;;5019803;28;20049;-80
2022/05/14 06:18:28;;;;;;;30.40;10.73;;;15.60;99.90;;;;;;5014915;28;20042;-80
2022/05/14 06:20:54;;;;;;;27.02;9.50;;;15.70;99.90;;;;;;5017624;28;20046;-80
2022/05/14 06:23:21;;;;;;;32.38;9.25;;;15.70;99.90;;;;;;5015762;28;20535;-80
2022/05/14 06:25:48;;;;;;;41.97;9.85;;;15.60;99.90;;;;;;5018263;28;20053;-80
2022/05/14 06:28:14;;;;;;;18.02;7.28;;;15.50;99.90;;;;;;5016300;28;20060;-80
2022/05/14 06:30:43;;;;;;;27.02;8.23;;;15.50;99.90;;;;;;5014821;28;20092;-80
2022/05/14 06:33:09;;;;;;;31.73;8.15;;;15.60;99.90;;;;;;5016409;28;20057;-80
2022/05/14 06:35:36;;;;;;;21.63;8.57;;;15.70;99.90;;;;;;5014671;28;21174;-80
2022/05/14 06:38:03;;;;;;;36.63;8.30;;;15.70;99.90;;;;;;5016252;28;20054;-80
2022/05/14 06:40:29;;;;;;;23.15;7.55;;;15.70;99.90;;;;;;5017296;28;20389;-80
2022/05/14 06:42:56;;;;;;;22.83;6.15;;;15.50;99.90;;;;;;5016438;28;20409;-79
2022/05/14 06:45:22;;;;;;;42.45;9.63;;;15.60;99.90;;;;;;5017296;28;20512;-81
2022/05/14 06:47:49;;;;;;;15.30;6.22;;;15.50;99.90;;;;;;5016854;28;20046;-80
2022/05/14 06:50:16;;;;;;;16.30;7.63;;;15.60;99.90;;;;;;5018143;28;20069;-80
2022/05/14 06:52:42;;;;;;;29.25;6.50;;;15.70;99.90;;;;;;5016993;28;20112;-80
2022/05/14 06:55:09;;;;;;;20.75;7.03;;;15.70;99.90;;;;;;5025105;28;20533;-80
2022/05/14 06:57:35;;;;;;;27.30;6.78;;;15.80;99.90;;;;;;5018440;28;20138;-78
2022/05/14 07:00:03;;;;;;;25.92;6.03;;;15.80;99.90;;;;;;5015348;28;20053;-83
2022/05/14 07:02:29;;;;;;;21.92;8.07;;;15.90;99.90;;;;;;5017062;28;20480;-80
2022/05/14 07:07:40;;;;;;;20.63;5.97;;;16.10;99.90;;;;;;5029401;28;20048;-80
2022/05/14 07:10:07;;;;;;;17.95;6.25;;;16.20;99.90;;;;;;5016916;28;20056;-78
2022/05/14 07:12:33;;;;;;;16.95;5.13;;;16.30;99.90;;;;;;5019552;28;20057;-80
2022/05/14 07:15:01;;;;;;;20.17;6.82;;;16.50;99.90;;;;;;5016059;28;20544;-78
2022/05/14 07:17:28;;;;;;;18.08;6.75;;;16.70;99.90;;;;;;5019693;28;20062;-80
2022/05/14 07:19:55;;;;;;;17.08;5.90;;;16.80;99.90;;;;;;5017918;28;20049;-79
2022/05/14 07:22:21;;;;;;;16.95;5.15;;;17.00;99.90;;;;;;5017693;28;20065;-80
2022/05/14 07:24:48;;;;;;;18.10;5.53;;;17.10;99.90;;;;;;5015376;28;20054;-80
2022/05/14 07:27:14;;;;;;;18.77;4.85;;;17.20;99.90;;;;;;5017075;28;20137;-80
2022/05/14 07:29:41;;;;;;;18.35;6.05;;;17.20;99.90;;;;;;5013573;28;20066;-81
2022/05/14 07:32:08;;;;;;;20.30;4.50;;;17.40;99.90;;;;;;5015239;28;20056;-80
2022/05/14 07:34:34;;;;;;;19.50;5.65;;;17.40;99.90;;;;;;5014396;28;20045;-80
2022/05/14 07:37:01;;;;;;;17.77;6.00;;;17.40;99.90;;;;;;5018945;28;20057;-82
2022/05/14 07:39:27;;;;;;;19.55;6.03;;;17.40;99.90;;;;;;5014839;28;20053;-80
2022/05/14 07:41:54;;;;;;;21.70;4.97;;;17.50;99.90;;;;;;5014723;28;20100;-80
2022/05/14 07:44:21;;;;;;;19.02;5.32;;;17.50;99.90;;;;;;5017740;28;20111;-80
2022/05/14 07:46:48;;;;;;;18.00;5.13;;;17.50;99.90;;;;;;5013088;28;20053;-81
2022/05/14 07:49:15;;;;;;;12.45;4.82;;;17.60;99.90;;;;;;5016270;28;20382;-81
2022/05/14 07:51:41;;;;;;;23.48;5.38;;;17.70;99.90;;;;;;5014186;28;20093;-81
2022/05/14 07:54:08;;;;;;;10.20;4.93;;;17.70;99.90;;;;;;5020577;28;20042;-81
2022/05/14 07:56:34;;;;;;;13.75;4.50;;;17.80;99.90;;;;;;5011590;28;20167;-80
2022/05/14 07:59:01;;;;;;;8.30;3.80;;;17.90;99.90;;;;;;5013201;28;20053;-82
2022/05/14 08:01:27;;;;;;;19.00;5.18;;;17.90;99.70;;;;;;5014722;28;20065;-80
2022/05/14 08:03:54;;;;;;;15.82;3.75;;;18.00;98.40;;;;;;5012149;28;20049;-80
2022/05/14 08:06:22;;;;;;;20.05;3.90;;;18.00;99.10;;;;;;5013492;28;20053;-79
2022/05/14 08:08:48;;;;;;;18.27;4.82;;;18.00;99.00;;;;;;5013458;28;20486;-79
2022/05/14 08:11:15;;;;;;;17.25;5.20;;;18.20;99.40;;;;;;5012038;28;20054;-80
2022/05/14 08:13:41;;;;;;;9.88;3.75;;;18.20;98.40;;;;;;5014360;28;20054;-80
2022/05/14 08:16:08;;;;;;;12.80;4.65;;;18.20;98.20;;;;;;5013424;28;20057;-83
2022/05/14 08:18:34;;;;;;;15.70;5.75;;;18.20;98.60;;;;;;5015780;28;20045;-79
2022/05/14 08:24:29;;;;;;;18.48;4.78;;;18.20;98.90;;;;;;5015419;28;20057;-78
2022/05/14 08:26:32;;;;;;;15.80;5.00;;;18.30;99.40;;;;;;5015212;28;20050;-80
2022/05/14 08:28:58;;;;;;;12.70;4.82;;;18.40;99.70;;;;;;5011603;28;20058;-82
2022/05/14 08:31:25;;;;;;;14.80;4.35;;;18.40;98.60;;;;;;5021958;28;20049;-80
2022/05/14 08:33:51;;;;;;;12.68;4.72;;;18.50;98.10;;;;;;5022694;28;20119;-79
2022/05/14 08:36:18;;;;;;;12.45;4.53;;;18.50;98.20;;;;;;5013758;28;20061;-80
2022/05/14 08:38:44;;;;;;;14.75;4.38;;;18.60;97.70;;;;;;5025022;28;20053;-80
2022/05/14 08:41:15;;;;;;;13.38;4.45;;;18.70;96.30;;;;;;5021453;28;20050;-83
2022/05/14 08:43:41;;;;;;;13.18;4.07;;;18.70;96.60;;;;;;5013142;28;20491;-80
2022/05/14 08:46:08;;;;;;;12.30;3.40;;;18.80;96.60;;;;;;5010350;28;20505;-80
2022/05/14 08:48:34;;;;;;;11.82;3.90;;;18.90;96.00;;;;;;5009636;28;20060;-79
2022/05/14 08:51:01;;;;;;;10.88;3.95;;;18.90;94.80;;;;;;5020182;28;20060;-80
2022/05/14 08:53:27;;;;;;;13.40;4.10;;;18.80;94.20;;;;;;5024652;28;20049;-81
2022/05/14 08:55:54;;;;;;;18.63;4.30;;;18.70;94.00;;;;;;5020871;28;20045;-81
2022/05/14 08:58:20;;;;;;;10.98;4.22;;;18.80;93.80;;;;;;5021895;28;20053;-80
2022/05/14 09:00:47;;;;;;;8.70;3.95;;;18.90;93.30;;;;;;5018719;28;20057;-80
2022/05/14 09:03:13;;;;;;;10.45;3.67;;;19.10;93.30;;;;;;5013874;28;20413;-82
2022/05/14 09:05:40;;;;;;;18.55;5.28;;;19.20;92.70;;;;;;5019956;28;20477;-80
2022/05/14 09:08:07;;;;;;;18.70;4.85;;;19.10;92.50;;;;;;5020679;28;20056;-80
2022/05/14 09:10:34;;;;;;;14.00;4.38;;;19.30;92.30;;;;;;5012351;28;20323;-80
2022/05/14 09:13:00;;;;;;;9.15;4.32;;;19.20;91.50;;;;;;5020112;28;20049;-79
2022/05/14 09:15:27;;;;;;;20.73;4.45;;;19.40;91.50;;;;;;5025593;28;20050;-80
2022/05/14 09:17:54;;;;;;;12.48;3.85;;;19.40;91.20;;;;;;5020861;28;20060;-79
2022/05/14 09:20:20;;;;;;;15.48;4.72;;;19.40;91.60;;;;;;5014913;28;20049;-80
2022/05/14 09:22:47;;;;;;;13.30;4.60;;;19.30;91.50;;;;;;5029671;28;20077;-80
2022/05/14 09:25:14;;;;;;;11.23;5.03;;;19.30;92.20;;;;;;5026566;28;20133;-84
2022/05/14 09:27:40;;;;;;;16.08;4.03;;;19.50;91.40;;;;;;5014253;28;20053;-79
2022/05/14 09:30:07;;;;;;;15.57;4.35;;;19.50;91.70;;;;;;5032064;28;20053;-80
2022/05/14 09:32:34;;;;;;;18.58;4.68;;;19.40;91.60;;;;;;5023048;28;20049;-80
2022/05/14 09:35:02;;;;;;;19.02;4.85;;;19.40;91.20;;;;;;5026326;28;20116;-79
2022/05/14 09:37:29;;;;;;;17.80;4.20;;;19.50;90.60;;;;;;5033246;28;20056;-79
2022/05/14 09:39:55;;;;;;;23.98;5.45;;;19.50;90.90;;;;;;5021746;28;20046;-80
2022/05/14 09:42:22;;;;;;;23.38;5.70;;;19.40;90.10;;;;;;5022601;28;20053;-80
2022/05/14 09:44:48;;;;;;;11.50;3.85;;;19.50;88.50;;;;;;5033290;28;20057;-81
